Time;durP1;ratioP1;P1;durP2;ratioP2;P2;SDS_P1;SDS_P2;PMS_P1;PMS_P2;Temp;Humidity;BMP_temperature;BMP_pressure;BME280_temperature;BME280_humidity;BME280_pressure;Samples;Min_cycle;Max_cycle;Signal;HPM_P1;HPM_P2
2023/03/27 00:01:03;;;;;;;11.10;2.83;;;;;;;3.77;100.00;97226.78;15274682;19;20050;-47
2023/03/27 00:06:33;;;;;;;10.73;3.20;;;;;;;3.83;100.00;97230.69;15278143;19;20024;-46
2023/03/27 00:11:59;;;;;;;16.00;2.90;;;;;;;3.83;100.00;97241.34;15276792;19;20871;-47
2023/03/27 00:17:24;;;;;;;12.52;2.70;;;;;;;3.83;100.00;97260.00;15274215;19;20014;-47
2023/03/27 00:22:54;;;;;;;13.02;2.83;;;;;;;3.81;100.00;97273.47;15275703;19;20093;-49
2023/03/27 00:28:19;;;;;;;13.80;2.92;;;;;;;3.89;100.00;97267.41;15278239;19;20010;-49
2023/03/27 00:33:44;;;;;;;13.40;2.70;;;;;;;3.98;100.00;97269.19;15273140;19;20019;-47
2023/03/27 00:39:12;;;;;;;14.57;3.00;;;;;;;3.87;100.00;97282.69;15272530;19;20050;-47
2023/03/27 00:44:37;;;;;;;13.80;2.92;;;;;;;3.85;100.00;97276.66;15278136;19;20014;-47
2023/03/27 00:50:02;;;;;;;10.75;2.30;;;;;;;3.83;100.00;97298.16;15271304;19;20042;-48
2023/03/27 00:55:33;;;;;;;14.82;2.88;;;;;;;3.84;100.00;97296.31;15274828;19;20021;-50
2023/03/27 01:01:01;;;;;;;11.63;3.05;;;;;;;3.83;100.00;97313.28;15277778;19;20066;-47
2023/03/27 01:06:26;;;;;;;14.13;3.15;;;;;;;3.83;100.00;97323.94;15268931;19;20018;-47
2023/03/27 01:12:04;;;;;;;14.38;3.05;;;;;;;3.84;100.00;97330.94;15272468;19;20014;-47
2023/03/27 01:17:54;;;;;;;13.45;3.28;;;;;;;3.93;100.00;97329.22;15271225;19;20022;-49
2023/03/27 01:23:44;;;;;;;15.60;3.25;;;;;;;3.87;100.00;97341.31;15275227;19;20018;-53
2023/03/27 01:29:28;;;;;;;12.07;3.20;;;;;;;3.67;100.00;97351.19;15274779;19;20018;-50
2023/03/27 01:35:05;;;;;;;8.48;2.20;;;;;;;3.35;100.00;97347.03;15274934;19;20034;-53
2023/03/27 01:40:38;;;;;;;16.52;3.38;;;;;;;3.26;100.00;97378.00;15272167;19;20524;-50
2023/03/27 01:46:06;;;;;;;11.30;2.38;;;;;;;3.18;100.00;97367.25;15272362;19;20082;-49
2023/03/27 01:51:37;;;;;;;8.68;2.15;;;;;;;3.05;100.00;97378.19;15272645;19;20014;-51
2023/03/27 01:57:19;;;;;;;11.88;2.58;;;;;;;3.02;100.00;97391.75;15271449;19;20030;-48
2023/03/27 02:02:50;;;;;;;9.07;2.30;;;;;;;2.88;100.00;97414.28;15284359;19;20077;-48
2023/03/27 02:08:19;;;;;;;11.97;2.93;;;;;;;2.62;100.00;97414.78;15284525;19;20027;-53
2023/03/27 02:14:02;;;;;;;13.13;3.78;;;;;;;2.64;100.00;97431.44;15287909;19;20015;-54
2023/03/27 02:19:32;;;;;;;12.77;3.60;;;;;;;2.71;100.00;97461.84;15283455;19;20386;-49
2023/03/27 02:24:58;;;;;;;12.43;3.25;;;;;;;2.69;100.00;97465.63;15286632;19;20370;-49
2023/03/27 02:30:34;;;;;;;15.82;3.35;;;;;;;2.78;100.00;97473.59;15282322;19;20010;-51
2023/03/27 02:36:07;;;;;;;15.73;3.45;;;;;;;2.80;100.00;97483.25;15285045;19;20028;-51
2023/03/27 02:41:46;;;;;;;14.48;2.92;;;;;;;2.85;100.00;97507.66;15275811;19;20018;-52
2023/03/27 02:47:27;;;;;;;18.52;3.47;;;;;;;2.84;100.00;97514.78;15281464;19;20090;-51
2023/03/27 02:52:55;;;;;;;14.63;3.10;;;;;;;2.82;100.00;97527.41;15280578;19;20034;-50
2023/03/27 02:58:23;;;;;;;12.05;2.70;;;;;;;2.88;100.00;97536.66;15280272;19;20019;-52
2023/03/27 03:04:06;;;;;;;9.82;2.30;;;;;;;2.84;100.00;97529.91;15281083;19;20850;-52
2023/03/27 03:09:47;;;;;;;12.52;2.42;;;;;;;2.91;100.00;97541.69;15278767;19;20093;-52
2023/03/27 03:15:17;;;;;;;14.43;2.40;;;;;;;2.89;100.00;97552.47;15268444;19;20033;-53
2023/03/27 03:20:44;;;;;;;11.50;2.20;;;;;;;2.82;100.00;97571.75;15265407;19;20018;-49
2023/03/27 03:26:11;;;;;;;9.27;2.45;;;;;;;2.87;100.00;97582.84;15271244;19;20021;-53
2023/03/27 03:31:44;;;;;;;14.35;2.78;;;;;;;2.79;100.00;97596.81;15269725;19;20018;-52
2023/03/27 03:37:12;;;;;;;8.15;2.25;;;;;;;2.74;100.00;97599.88;15280029;19;20027;-49
2023/03/27 03:42:38;;;;;;;7.43;1.90;;;;;;;2.70;100.00;97614.41;15275983;19;20006;-51
2023/03/27 03:48:07;;;;;;;7.82;1.95;;;;;;;2.65;100.00;97632.56;15276001;19;20022;-52
2023/03/27 03:53:41;;;;;;;7.30;1.70;;;;;;;2.65;100.00;97642.38;15277135;19;20126;-51
2023/03/27 03:59:07;;;;;;;9.48;2.00;;;;;;;2.70;100.00;97650.81;15274829;19;20019;-50
2023/03/27 04:05:00;;;;;;;7.40;1.60;;;;;;;2.52;100.00;97674.47;15279413;19;20607;-53
2023/03/27 04:10:30;;;;;;;4.78;1.50;;;;;;;2.38;100.00;97684.44;15276137;19;20014;-55
2023/03/27 04:16:10;;;;;;;2.67;1.15;;;;;;;2.37;100.00;97688.06;15276786;19;20018;-51
2023/03/27 04:21:36;;;;;;;5.63;1.55;;;;;;;2.29;100.00;97695.84;15278064;19;20115;-51
2023/03/27 04:27:07;;;;;;;5.70;1.30;;;;;;;2.13;100.00;97697.09;15279495;19;20018;-50
2023/03/27 04:32:42;;;;;;;4.60;1.20;;;;;;;2.12;100.00;97707.84;15277491;19;20034;-51
2023/03/27 04:38:35;;;;;;;4.78;1.50;;;;;;;2.14;100.00;97722.72;15274972;19;20017;-52
2023/03/27 04:44:04;;;;;;;4.85;1.38;;;;;;;2.13;100.00;97731.66;15280986;19;20027;-51
2023/03/27 04:49:29;;;;;;;4.22;1.88;;;;;;;2.10;100.00;97745.19;15272825;19;20011;-55
2023/03/27 04:55:10;;;;;;;5.32;2.10;;;;;;;1.98;100.00;97767.41;15277522;19;20023;-52
2023/03/27 05:00:38;;;;;;;4.43;2.20;;;;;;;1.90;100.00;97793.75;15276785;19;20035;-49
2023/03/27 05:06:27;;;;;;;5.03;2.03;;;;;;;1.75;100.00;97791.34;15274622;19;20019;-50
2023/03/27 05:11:56;;;;;;;3.08;1.60;;;;;;;1.59;100.00;97804.16;15274465;19;20014;-51
2023/03/27 05:17:33;;;;;;;4.68;1.60;;;;;;;1.40;100.00;97816.19;15276078;19;20090;-55
2023/03/27 05:22:59;;;;;;;2.85;1.30;;;;;;;1.26;100.00;97850.88;15269457;19;20078;-50
2023/03/27 05:28:25;;;;;;;4.43;1.52;;;;;;;1.33;100.00;97845.00;15276536;19;20066;-50
2023/03/27 05:33:53;;;;;;;3.45;1.30;;;;;;;1.09;100.00;97861.00;15286745;19;20014;-53
2023/03/27 05:39:23;;;;;;;5.30;1.40;;;;;;;1.09;100.00;97871.59;15301361;19;20019;-52
2023/03/27 05:44:52;;;;;;;2.70;1.30;;;;;;;1.00;100.00;97886.38;15303302;19;20283;-52
2023/03/27 05:50:20;;;;;;;5.10;1.67;;;;;;;1.03;100.00;97888.81;15300280;19;20030;-50
2023/03/27 05:55:54;;;;;;;2.85;1.60;;;;;;;0.92;100.00;97907.34;15295661;19;20022;-52
2023/03/27 06:01:33;;;;;;;4.38;1.63;;;;;;;0.88;100.00;97912.00;15299920;19;20043;-50
2023/03/27 06:07:09;;;;;;;5.68;1.85;;;;;;;0.85;100.00;97927.28;15303130;19;20024;-48
2023/03/27 06:12:34;;;;;;;3.22;1.80;;;;;;;0.84;100.00;97931.75;15301065;19;20032;-51
2023/03/27 06:18:06;;;;;;;2.53;1.90;;;;;;;0.89;100.00;97940.22;15302746;19;20029;-49
2023/03/27 06:23:34;;;;;;;4.75;2.38;;;;;;;1.03;100.00;97952.50;15304322;19;20064;-51
2023/03/27 06:29:00;;;;;;;4.15;1.90;;;;;;;1.10;100.00;97944.94;15299457;19;20018;-48
2023/03/27 06:34:30;;;;;;;4.68;1.65;;;;;;;1.23;100.00;97966.06;15305346;19;20011;-53
2023/03/27 06:40:23;;;;;;;4.18;1.77;;;;;;;1.22;100.00;97956.41;15303017;19;20015;-50
2023/03/27 06:45:50;;;;;;;2.63;1.58;;;;;;;1.34;100.00;97965.28;15294226;19;20023;-51
2023/03/27 06:51:33;;;;;;;6.72;1.85;;;;;;;1.38;100.00;97972.91;15287020;19;20014;-50
2023/03/27 06:57:08;;;;;;;4.75;1.92;;;;;;;1.43;100.00;97984.97;15281100;19;20031;-48
2023/03/27 07:02:37;;;;;;;3.38;1.60;;;;;;;1.53;100.00;98002.75;15279287;19;20081;-48
2023/03/27 07:08:26;;;;;;;5.22;1.30;;;;;;;1.60;100.00;97987.22;15286948;19;20842;-53
2023/03/27 07:13:55;;;;;;;2.67;1.30;;;;;;;1.75;100.00;97987.88;15284945;19;20089;-52
2023/03/27 07:19:20;;;;;;;3.78;1.30;;;;;;;1.90;100.00;97992.97;15282500;19;20103;-51
2023/03/27 07:24:51;;;;;;;2.63;1.10;;;;;;;1.92;100.00;98002.53;15287387;19;20022;-50
2023/03/27 07:30:25;;;;;;;2.50;1.10;;;;;;;2.01;100.00;97998.31;15276641;19;20472;-53
2023/03/27 07:35:53;;;;;;;5.05;1.27;;;;;;;2.01;100.00;98000.97;15285029;19;20015;-51
2023/03/27 07:41:28;;;;;;;1.90;0.95;;;;;;;2.19;100.00;97990.75;15282367;19;20026;-52
2023/03/27 07:47:09;;;;;;;2.97;1.00;;;;;;;2.28;100.00;97991.84;15283267;19;20018;-50
2023/03/27 07:52:35;;;;;;;3.17;1.00;;;;;;;2.39;100.00;98013.13;15280514;19;20098;-53
2023/03/27 07:58:01;;;;;;;3.22;1.00;;;;;;;2.49;100.00;98023.03;15280735;19;20022;-51
2023/03/27 08:03:29;;;;;;;4.43;1.17;;;;;;;2.50;100.00;98020.25;15278215;19;20018;-50
2023/03/27 08:08:54;;;;;;;3.83;1.10;;;;;;;2.33;100.00;98024.22;15277609;19;20439;-50
2023/03/27 08:14:19;;;;;;;5.00;1.05;;;;;;;2.23;100.00;98034.72;15283260;19;20392;-53
2023/03/27 08:19:55;;;;;;;4.38;1.27;;;;;;;2.18;100.00;98051.97;15279255;19;20115;-54
2023/03/27 08:25:31;;;;;;;3.53;0.98;;;;;;;2.33;100.00;98056.13;15286767;19;20081;-54
2023/03/27 08:30:58;;;;;;;5.13;1.20;;;;;;;2.23;100.00;98055.13;15281441;19;20018;-53
2023/03/27 08:36:26;;;;;;;2.75;0.95;;;;;;;2.34;100.00;98071.09;15277773;19;20119;-54
2023/03/27 08:41:54;;;;;;;3.50;1.00;;;;;;;2.49;100.00;98068.22;15278510;19;20038;-54
2023/03/27 08:47:25;;;;;;;3.40;0.90;;;;;;;2.46;100.00;98074.66;15275729;19;20780;-50
2023/03/27 08:52:59;;;;;;;4.38;1.27;;;;;;;2.40;100.00;98086.59;15278214;19;20857;-53
2023/03/27 08:58:27;;;;;;;3.33;1.08;;;;;;;2.62;100.00;98084.94;15280849;19;20019;-51
2023/03/27 09:04:14;;;;;;;3.47;0.98;;;;;;;2.86;100.00;98086.63;15339391;19;20018;-50
2023/03/27 09:09:57;;;;;;;6.50;1.10;;;;;;;3.06;100.00;98095.69;15331510;19;20055;-52
2023/03/27 09:15:31;;;;;;;4.35;1.23;;;;;;;2.86;100.00;98082.16;15295554;19;20042;-50
2023/03/27 09:21:00;;;;;;;3.13;1.00;;;;;;;2.97;100.00;98089.31;15273684;19;20026;-53
2023/03/27 09:26:32;;;;;;;2.63;0.90;;;;;;;3.14;100.00;98101.28;15281505;19;20343;-48
2023/03/27 09:32:21;;;;;;;3.40;0.98;;;;;;;3.09;100.00;98106.09;15274003;19;20418;-50
2023/03/27 09:37:57;;;;;;;6.32;1.13;;;;;;;3.31;100.00;98128.34;15272170;19;20475;-49
2023/03/27 09:43:21;;;;;;;4.17;1.00;;;;;;;3.61;100.00;98122.38;15267265;19;20014;-51
2023/03/27 09:48:52;;;;;;;5.90;1.35;;;;;;;3.27;100.00;98137.56;15273061;19;20419;-49
2023/03/27 09:54:27;;;;;;;3.88;1.05;;;;;;;3.16;100.00;98136.59;15271097;19;20039;-50
2023/03/27 10:00:06;;;;;;;3.38;1.00;;;;;;;3.36;100.00;98147.47;15270926;19;20014;-49
2023/03/27 10:05:35;;;;;;;3.15;1.05;;;;;;;3.47;100.00;98150.13;15273215;19;20082;-53
2023/03/27 10:11:03;;;;;;;3.58;1.02;;;;;;;3.60;100.00;98157.13;15269569;19;20035;-50
2023/03/27 10:16:37;;;;;;;3.17;1.05;;;;;;;3.77;100.00;98148.59;15270877;19;20044;-51
2023/03/27 10:22:08;;;;;;;3.10;0.90;;;;;;;3.62;100.00;98158.69;15277768;19;20022;-51
2023/03/27 10:27:39;;;;;;;3.70;1.20;;;;;;;3.65;100.00;98152.25;14772981;19;10000379;-52
2023/03/27 10:33:35;;;;;;;2.78;0.95;;;;;;;3.72;100.00;98163.28;15280459;19;20015;-53
2023/03/27 10:39:10;;;;;;;3.65;1.25;;;;;;;3.70;100.00;98188.22;15283732;19;20018;-52
2023/03/27 10:44:57;;;;;;;3.75;0.98;;;;;;;3.85;100.00;98163.97;15282199;19;20024;-50
2023/03/27 10:50:32;;;;;;;3.35;0.88;;;;;;;4.05;100.00;98180.16;15279406;19;20426;-75
2023/03/27 10:56:15;;;;;;;2.10;0.77;;;;;;;4.07;100.00;98173.72;15290596;19;20147;-76
2023/03/27 11:01:46;;;;;;;3.00;0.95;;;;;;;4.39;100.00;98177.38;15288634;19;20019;-76
2023/03/27 11:07:22;;;;;;;2.88;0.90;;;;;;;4.29;100.00;98172.78;15288969;19;20019;-76
2023/03/27 11:12:52;;;;;;;1.52;0.65;;;;;;;4.08;100.00;98187.91;15282218;19;20038;-78
2023/03/27 11:18:22;;;;;;;2.33;0.88;;;;;;;4.23;100.00;98183.13;15282817;19;20074;-78
2023/03/27 11:23:56;;;;;;;2.15;0.88;;;;;;;4.53;100.00;98179.72;15291053;19;20023;-77
2023/03/27 11:29:34;;;;;;;4.15;0.90;;;;;;;4.31;100.00;98194.84;15289313;19;20022;-77
2023/03/27 11:35:02;;;;;;;3.45;1.00;;;;;;;4.27;100.00;98201.41;15295600;19;20018;-78
2023/03/27 11:40:41;;;;;;;2.78;0.88;;;;;;;4.38;100.00;98191.69;15341595;19;20006;-77
2023/03/27 11:46:16;;;;;;;2.28;0.70;;;;;;;4.40;99.98;98195.06;15287674;19;20015;-78
2023/03/27 11:51:56;;;;;;;2.17;0.70;;;;;;;4.55;100.00;98198.28;15275780;19;20545;-78
2023/03/27 11:57:30;;;;;;;4.28;1.00;;;;;;;4.49;100.00;98199.63;15281775;19;20014;-78
2023/03/27 12:03:39;;;;;;;3.17;1.00;;;;;;;4.60;100.00;98201.38;15278662;19;20105;-76
2023/03/27 12:09:35;;;;;;;3.72;1.00;;;;;;;5.20;100.00;98188.28;15279867;19;20086;-79
2023/03/27 12:15:53;;;;;;;1.38;0.60;;;;;;;5.07;97.13;98198.34;15279947;19;20015;-78
2023/03/27 12:21:33;;;;;;;2.33;0.80;;;;;;;4.94;96.02;98204.72;15274931;19;20014;-78
2023/03/27 12:27:28;;;;;;;3.13;1.08;;;;;;;4.39;100.00;98214.72;15280413;19;20034;-79
2023/03/27 12:33:43;;;;;;;2.65;1.00;;;;;;;5.22;100.00;98199.69;15280872;19;20021;-78
2023/03/27 12:39:20;;;;;;;5.45;0.88;;;;;;;5.40;100.00;98193.72;15280406;19;20381;-79
2023/03/27 12:45:13;;;;;;;2.95;0.90;;;;;;;5.43;100.00;98214.81;15277037;19;20022;-76
2023/03/27 12:50:55;;;;;;;4.35;0.90;;;;;;;5.24;100.00;98205.72;15277395;19;20010;-78
2023/03/27 12:56:34;;;;;;;2.28;0.95;;;;;;;5.19;100.00;98202.63;15274906;19;20039;-77
2023/03/27 13:02:37;;;;;;;3.00;0.75;;;;;;;5.43;100.00;98214.81;15277024;19;20022;-78
2023/03/27 13:08:21;;;;;;;5.03;0.90;;;;;;;5.41;100.00;98211.44;15278992;19;20481;-78
2023/03/27 13:14:20;;;;;;;2.05;0.90;;;;;;;5.74;100.00;98212.13;15275779;19;20019;-76
2023/03/27 13:19:58;;;;;;;2.03;0.60;;;;;;;6.10;100.00;98184.94;15274765;19;20022;-76
2023/03/27 13:25:33;;;;;;;2.00;0.73;;;;;;;5.81;100.00;98199.91;15276759;19;20006;-76
2023/03/27 13:31:00;;;;;;;3.25;0.63;;;;;;;5.35;98.07;98223.50;15275710;19;20043;-77
2023/03/27 13:36:43;;;;;;;2.28;0.70;;;;;;;5.29;95.73;98223.19;15280287;19;20010;-76
2023/03/27 13:42:32;;;;;;;1.80;0.70;;;;;;;5.22;100.00;98223.72;15278157;19;20596;-78
2023/03/27 13:48:23;;;;;;;3.25;0.80;;;;;;;5.65;100.00;98224.47;15281700;19;20030;-78
2023/03/27 13:54:11;;;;;;;2.10;0.70;;;;;;;5.54;94.96;98232.56;15280174;19;20021;-79
2023/03/27 14:00:05;;;;;;;2.45;0.90;;;;;;;5.76;90.52;98239.56;15287983;19;20022;-79
2023/03/27 14:05:52;;;;;;;2.15;0.68;;;;;;;5.69;100.00;98257.13;15297776;19;20388;-81
2023/03/27 14:11:38;;;;;;;2.10;0.70;;;;;;;5.49;100.00;98273.06;15294019;19;20006;-79
2023/03/27 14:17:52;;;;;;;1.33;0.63;;;;;;;5.27;100.00;98292.78;15300795;19;20025;-79
2023/03/27 14:23:20;;;;;;;1.98;0.50;;;;;;;5.21;100.00;98307.50;15293683;19;20022;-78
2023/03/27 14:29:00;;;;;;;1.42;0.70;;;;;;;4.79;100.00;98296.75;15291037;19;20006;-78
2023/03/27 14:34:38;;;;;;;2.20;0.70;;;;;;;4.53;100.00;98322.94;15302872;19;20020;-80
2023/03/27 14:40:35;;;;;;;1.10;0.60;;;;;;;3.98;100.00;98308.59;15297097;19;21002;-80
2023/03/27 14:46:06;;;;;;;5.20;0.65;;;;;;;4.37;100.00;98310.00;15267391;19;20014;-80
2023/03/27 14:51:46;;;;;;;1.75;0.60;;;;;;;4.23;100.00;98324.47;15264340;19;20035;-79
2023/03/27 14:57:32;;;;;;;2.45;0.77;;;;;;;4.04;100.00;98330.41;15275317;19;20018;-79
2023/03/27 15:03:00;;;;;;;1.83;0.68;;;;;;;3.64;100.00;98347.72;15267824;19;20379;-79
2023/03/27 15:08:32;;;;;;;1.35;0.52;;;;;;;3.04;100.00;98353.97;15272222;19;20018;-78
2023/03/27 15:14:22;;;;;;;1.73;0.57;;;;;;;2.85;100.00;98369.63;15280883;19;20497;-79
2023/03/27 15:19:52;;;;;;;2.05;0.70;;;;;;;2.94;100.00;98382.25;15274672;19;20032;-79
2023/03/27 15:25:24;;;;;;;1.15;0.60;;;;;;;3.42;100.00;98370.66;15276045;19;20530;-78
2023/03/27 15:30:55;;;;;;;1.42;0.60;;;;;;;3.85;100.00;98358.50;15270192;19;20010;-79
2023/03/27 15:36:31;;;;;;;1.27;0.65;;;;;;;3.64;100.00;98364.56;15273591;19;20031;-82
2023/03/27 15:42:15;;;;;;;2.65;0.70;;;;;;;3.37;100.00;98367.53;15273599;19;20091;-81
2023/03/27 15:47:46;;;;;;;1.25;0.63;;;;;;;3.01;100.00;98420.75;15275189;19;20793;-80
2023/03/27 15:53:17;;;;;;;1.70;1.00;;;;;;;2.85;100.00;98417.53;15273822;19;20030;-81
2023/03/27 15:58:53;;;;;;;7.18;6.50;;;;;;;2.81;100.00;98435.53;15274966;19;20014;-78
2023/03/27 16:04:23;;;;;;;1.80;1.02;;;;;;;2.77;100.00;98442.03;15276863;19;20040;-79
2023/03/27 16:09:54;;;;;;;2.17;1.00;;;;;;;2.82;100.00;98431.91;15265275;19;20014;-79
2023/03/27 16:15:35;;;;;;;1.53;0.50;;;;;;;3.17;100.00;98425.81;15271166;19;20043;-78
2023/03/27 16:21:08;;;;;;;2.10;0.60;;;;;;;3.41;100.00;98426.72;15269601;19;20051;-78
2023/03/27 16:26:35;;;;;;;2.35;0.90;;;;;;;3.62;100.00;98441.06;15265715;19;20309;-79
2023/03/27 16:32:09;;;;;;;1.92;0.80;;;;;;;3.87;100.00;98438.38;15260186;19;20060;-79
2023/03/27 16:37:34;;;;;;;1.50;0.50;;;;;;;3.63;100.00;98437.44;15263013;19;20056;-79
2023/03/27 16:42:59;;;;;;;1.90;0.60;;;;;;;3.51;100.00;98433.91;15254950;19;20018;-79
2023/03/27 16:48:27;;;;;;;0.93;0.52;;;;;;;3.30;100.00;98431.06;15270756;19;20024;-82
2023/03/27 16:53:58;;;;;;;1.73;0.65;;;;;;;3.04;100.00;98447.13;15273692;19;20025;-82
2023/03/27 16:59:24;;;;;;;2.13;0.80;;;;;;;2.80;100.00;98454.25;15277974;19;20909;-81
2023/03/27 17:04:51;;;;;;;3.00;0.70;;;;;;;2.92;100.00;98467.53;15272790;19;20093;-81
2023/03/27 17:10:17;;;;;;;1.60;0.70;;;;;;;3.15;100.00;98469.44;15266878;19;20533;-81
2023/03/27 17:15:44;;;;;;;2.67;0.90;;;;;;;3.01;100.00;98471.31;15265734;19;20021;-81
2023/03/27 17:21:14;;;;;;;2.65;0.75;;;;;;;2.78;100.00;98483.63;15280579;19;20018;-81
2023/03/27 17:26:40;;;;;;;1.95;0.68;;;;;;;2.69;100.00;98517.06;15328632;19;20017;-81
2023/03/27 17:32:05;;;;;;;1.80;0.80;;;;;;;2.57;100.00;98509.94;15252057;19;20015;-78
2023/03/27 17:37:33;;;;;;;2.28;0.73;;;;;;;2.33;100.00;98520.50;15261454;19;20090;-82
2023/03/27 17:42:58;;;;;;;1.58;0.60;;;;;;;2.21;100.00;98533.69;15268036;19;20017;-80
2023/03/27 17:48:22;;;;;;;1.95;0.82;;;;;;;2.18;100.00;98543.66;15258288;19;20018;-80
2023/03/27 17:53:50;;;;;;;1.52;0.70;;;;;;;1.99;100.00;98544.94;15257274;19;20014;-79
2023/03/27 17:59:14;;;;;;;1.67;0.90;;;;;;;1.85;100.00;98541.41;15266735;19;20021;-79
2023/03/27 18:04:40;;;;;;;1.58;0.90;;;;;;;1.61;100.00;98551.88;15259100;19;20015;-80
2023/03/27 18:10:09;;;;;;;1.30;0.60;;;;;;;1.60;100.00;98573.19;15252234;19;20025;-80
2023/03/27 18:15:34;;;;;;;1.75;0.88;;;;;;;1.58;100.00;98572.47;15254478;19;20102;-80
2023/03/27 18:20:58;;;;;;;1.48;0.80;;;;;;;1.41;100.00;98587.69;15252135;19;20037;-80
2023/03/27 18:26:29;;;;;;;1.92;0.80;;;;;;;1.19;100.00;98594.38;15258671;19;20010;-79
2023/03/27 18:31:53;;;;;;;1.58;0.95;;;;;;;1.06;100.00;98594.28;15294103;19;20035;-80
2023/03/27 18:37:18;;;;;;;0.82;0.80;;;;;;;0.97;100.00;98610.78;15270793;19;20090;-79
2023/03/27 18:42:47;;;;;;;0.95;0.80;;;;;;;0.85;100.00;98620.38;15267475;19;20027;-80
2023/03/27 18:48:12;;;;;;;0.73;0.73;;;;;;;0.74;100.00;98631.63;15273592;19;20014;-80
2023/03/27 18:53:44;;;;;;;1.60;0.90;;;;;;;0.68;100.00;98641.75;15273282;19;20039;-80
2023/03/27 18:59:13;;;;;;;1.17;0.90;;;;;;;0.68;100.00;98637.31;15275125;19;20015;-80
2023/03/27 19:04:38;;;;;;;1.98;1.10;;;;;;;0.72;100.00;98644.13;15282718;19;20010;-81
2023/03/27 19:10:05;;;;;;;1.17;0.90;;;;;;;0.94;100.00;98658.75;15307733;19;20015;-83
2023/03/27 19:15:51;;;;;;;1.90;0.88;;;;;;;1.12;100.00;98634.66;15301232;19;20373;-83
2023/03/27 19:21:43;;;;;;;1.30;1.05;;;;;;;1.19;100.00;98631.53;15303828;19;20510;-83
2023/03/27 19:27:19;;;;;;;1.83;0.93;;;;;;;1.31;100.00;98627.22;15314299;19;20043;-86
2023/03/27 19:32:59;;;;;;;2.65;0.70;;;;;;;1.22;100.00;98631.34;15309376;19;20054;-84
2023/03/27 19:38:24;;;;;;;1.67;0.82;;;;;;;1.28;100.00;98634.53;15307175;19;20010;-82
2023/03/27 19:43:49;;;;;;;0.85;0.70;;;;;;;1.26;100.00;98631.13;15305627;19;20021;-81
2023/03/27 19:49:20;;;;;;;1.27;0.90;;;;;;;1.10;100.00;98632.13;15304909;19;20014;-82
2023/03/27 19:55:00;;;;;;;1.75;0.90;;;;;;;1.08;100.00;98640.16;15298769;19;20020;-83
2023/03/27 20:00:26;;;;;;;1.42;0.90;;;;;;;1.04;100.00;98641.31;15309836;19;20440;-83
2023/03/27 20:05:54;;;;;;;1.05;0.75;;;;;;;0.97;100.00;98641.78;15346105;19;20018;-82
2023/03/27 20:11:25;;;;;;;4.25;0.93;;;;;;;1.06;100.00;98635.91;15285450;19;20026;-82
2023/03/27 20:16:50;;;;;;;2.25;0.63;;;;;;;1.00;100.00;98636.28;15290866;19;20086;-85
2023/03/27 20:22:25;;;;;;;1.63;0.80;;;;;;;1.06;100.00;98635.91;15249318;19;20026;-45
2023/03/27 20:28:01;;;;;;;1.75;0.73;;;;;;;1.06;100.00;98626.13;15273075;19;20021;-49
2023/03/27 20:33:25;;;;;;;1.23;0.70;;;;;;;1.16;100.00;98642.31;15282435;19;20670;-44
2023/03/27 20:38:55;;;;;;;1.70;0.70;;;;;;;0.98;100.00;98635.53;15282405;19;20015;-41
2023/03/27 20:44:21;;;;;;;1.85;0.82;;;;;;;1.00;100.00;98633.63;15278178;19;20424;-43
2023/03/27 20:49:50;;;;;;;1.60;0.82;;;;;;;1.05;100.00;98634.19;15274311;19;20017;-42
2023/03/27 20:55:18;;;;;;;1.02;0.80;;;;;;;1.11;100.00;98644.44;15274831;19;20024;-46
2023/03/27 21:00:57;;;;;;;1.97;0.83;;;;;;;1.08;100.00;98634.84;15270565;19;20010;-47
2023/03/27 21:06:24;;;;;;;2.95;1.10;;;;;;;1.08;100.00;98636.66;15270064;19;20697;-45
2023/03/27 21:11:53;;;;;;;1.77;0.75;;;;;;;1.14;100.00;98632.75;15273067;19;20017;-42
2023/03/27 21:17:17;;;;;;;1.38;0.70;;;;;;;1.17;100.00;98628.09;15274773;19;20018;-44
2023/03/27 21:22:51;;;;;;;2.08;0.80;;;;;;;1.23;100.00;98635.66;15271940;19;20041;-43
2023/03/27 21:28:19;;;;;;;1.88;0.70;;;;;;;1.32;100.00;98633.41;15272799;19;20392;-46
2023/03/27 21:33:44;;;;;;;2.15;0.77;;;;;;;1.14;100.00;98628.28;15267419;19;20019;-45
2023/03/27 21:39:10;;;;;;;1.60;0.70;;;;;;;1.17;100.00;98632.59;15272978;19;20028;-42
2023/03/27 21:44:38;;;;;;;2.40;0.80;;;;;;;1.19;100.00;98633.31;15271865;19;20018;-45
2023/03/27 21:50:11;;;;;;;1.23;0.70;;;;;;;1.11;100.00;98639.13;15271906;19;20018;-46
2023/03/27 21:55:37;;;;;;;1.85;0.73;;;;;;;1.05;100.00;98634.19;15269346;19;20023;-42
2023/03/27 22:01:06;;;;;;;3.53;0.85;;;;;;;1.08;100.00;98645.44;15272379;19;20011;-43
2023/03/27 22:06:30;;;;;;;2.70;0.90;;;;;;;1.11;100.00;98639.13;15268247;19;20019;-48
2023/03/27 22:11:56;;;;;;;1.42;0.80;;;;;;;1.11;100.00;98651.53;15271051;19;20035;-45
2023/03/27 22:17:22;;;;;;;3.35;0.70;;;;;;;1.09;100.00;98662.25;15283290;19;20020;-45
2023/03/27 22:22:53;;;;;;;2.30;0.80;;;;;;;1.12;100.00;98654.06;15283991;19;20014;-44
2023/03/27 22:28:18;;;;;;;1.40;0.73;;;;;;;1.16;100.00;98654.75;15284763;19;20110;-45
2023/03/27 22:33:46;;;;;;;2.42;0.90;;;;;;;1.10;100.00;98665.72;15280885;19;20367;-43
2023/03/27 22:39:11;;;;;;;3.20;1.08;;;;;;;1.22;100.00;98657.88;15284533;19;20014;-46
2023/03/27 22:44:38;;;;;;;2.53;0.90;;;;;;;1.37;100.00;98679.06;15284803;19;20746;-43
2023/03/27 22:50:05;;;;;;;2.47;0.70;;;;;;;1.34;100.00;98666.03;15284413;19;20015;-43
2023/03/27 22:55:30;;;;;;;4.07;0.90;;;;;;;1.33;100.00;98678.41;15280683;19;20026;-45
2023/03/27 23:00:56;;;;;;;2.05;0.90;;;;;;;1.37;100.00;98682.59;15284538;19;20017;-42
2023/03/27 23:06:30;;;;;;;3.58;1.00;;;;;;;1.34;100.00;98677.47;15273541;19;20057;-47
2023/03/27 23:11:56;;;;;;;2.28;0.80;;;;;;;1.41;100.00;98674.44;15283064;19;20049;-43
2023/03/27 23:17:21;;;;;;;4.03;0.90;;;;;;;1.38;100.00;98684.31;15283985;19;20010;-43
2023/03/27 23:22:48;;;;;;;2.45;0.90;;;;;;;1.37;100.00;98687.03;15276473;19;20017;-74
2023/03/27 23:28:13;;;;;;;2.75;0.95;;;;;;;1.13;100.00;98713.31;15286489;19;20494;-74
2023/03/27 23:33:39;;;;;;;3.85;1.10;;;;;;;1.13;100.00;98697.41;15286478;19;20102;-74
2023/03/27 23:39:07;;;;;;;3.10;1.10;;;;;;;1.12;100.00;98715.09;15282486;19;20018;-74
2023/03/27 23:44:31;;;;;;;3.58;1.10;;;;;;;1.18;100.00;98698.81;15281429;19;20015;-74
2023/03/27 23:49:57;;;;;;;3.97;0.98;;;;;;;1.20;100.00;98707.53;15282262;19;20026;-74
2023/03/27 23:55:24;;;;;;;3.20;1.00;;;;;;;1.17;100.00;98710.38;15283965;19;20018;-74
